createdAt,value
2019-05-10T00:02:10.700Z,99642.36
2019-05-10T00:04:55.886Z,99643.05
2019-05-10T00:07:41.158Z,99636.53
2019-05-10T00:10:07.644Z,99637.38
2019-05-10T00:12:45.124Z,99636.63
2019-05-10T00:15:13.097Z,99640.28
2019-05-10T00:18:01.180Z,99646.31
2019-05-10T00:20:27.923Z,99644.63
2019-05-10T00:22:54.732Z,99645.09
2019-05-10T00:25:21.482Z,99637.65
2019-05-10T00:27:48.227Z,99639.03
2019-05-10T00:30:15.139Z,99643.58
2019-05-10T00:32:41.993Z,99644.83
2019-05-10T00:35:08.779Z,99651.02
2019-05-10T00:37:35.601Z,99647.96
2019-05-10T00:40:04.380Z,99645.49
2019-05-10T00:42:31.268Z,99648.66
2019-05-10T00:44:58.029Z,99651.69
2019-05-10T00:47:24.947Z,99649.97
2019-05-10T00:49:51.592Z,99658.34
2019-05-10T00:52:18.707Z,99651.69
2019-05-10T00:54:45.781Z,99651.35
2019-05-10T00:57:12.534Z,99654.18
2019-05-10T00:59:39.272Z,99651.55
2019-05-10T01:02:06.082Z,99660.87
2019-05-10T01:04:33.110Z,99664.88
2019-05-10T01:07:00.099Z,99660.14
2019-05-10T01:09:27.177Z,99661.45
2019-05-10T01:11:54.245Z,99667.64
2019-05-10T01:14:22.051Z,99661.98
2019-05-10T01:16:48.883Z,99667.25
2019-05-10T01:19:15.631Z,99677.72
2019-05-10T01:21:42.859Z,99672.91
2019-05-10T01:24:09.644Z,99676.50
2019-05-10T01:26:36.402Z,99680.75
2019-05-10T01:29:03.287Z,99680.69
2019-05-10T01:31:30.050Z,99680.34
2019-05-10T01:33:56.678Z,99674.21
2019-05-10T01:36:23.694Z,99684.88
2019-05-10T01:38:50.660Z,99675.20
2019-05-10T01:41:23.725Z,99682.01
2019-05-10T01:43:50.622Z,99674.56
2019-05-10T01:46:17.667Z,99679.38
2019-05-10T01:48:44.451Z,99685.11
2019-05-10T01:51:11.107Z,99682.63
2019-05-10T01:53:37.985Z,99679.99
2019-05-10T01:56:05.163Z,99686.55
2019-05-10T01:58:31.902Z,99684.77
2019-05-10T02:00:58.794Z,99681.73
2019-05-10T02:03:25.590Z,99689.58
2019-05-10T02:05:52.334Z,99693.93
2019-05-10T02:08:19.123Z,99689.58
2019-05-10T02:10:45.874Z,99698.67
2019-05-10T02:13:12.617Z,99698.27
2019-05-10T02:15:39.748Z,99700.84
2019-05-10T02:18:07.022Z,99697.52
2019-05-10T02:20:33.761Z,99701.97
2019-05-10T02:23:00.950Z,99699.23
2019-05-10T02:25:27.705Z,99700.09
2019-05-10T02:27:54.767Z,99702.33
2019-05-10T02:30:21.689Z,99702.45
2019-05-10T02:32:48.454Z,99699.75
2019-05-10T02:35:15.354Z,99697.80
2019-05-10T02:37:42.210Z,99705.94
2019-05-10T02:40:09.939Z,99705.15
2019-05-10T02:42:36.788Z,99699.52
2019-05-10T02:45:04.145Z,99701.66
2019-05-10T02:47:30.943Z,99709.38
2019-05-10T02:49:59.314Z,99712.53
2019-05-10T02:52:26.327Z,99718.94
2019-05-10T02:55:01.242Z,99727.14
2019-05-10T02:57:28.139Z,99719.10
2019-05-10T02:59:54.980Z,99727.93
2019-05-10T03:02:21.720Z,99728.79
2019-05-10T03:04:48.972Z,99726.61
2019-05-10T03:07:17.204Z,99738.75
2019-05-10T03:09:47.342Z,99742.14
2019-05-10T03:12:28.264Z,99743.22
2019-05-10T03:14:56.765Z,99743.46
2019-05-10T03:17:30.770Z,99742.14
2019-05-10T03:19:59.480Z,99747.05
2019-05-10T03:22:26.438Z,99754.95
2019-05-10T03:24:53.830Z,99754.23
2019-05-10T03:27:20.720Z,99759.96
2019-05-10T03:29:47.614Z,99764.84
2019-05-10T03:32:14.421Z,99766.03
2019-05-10T03:34:41.929Z,99767.45
2019-05-10T03:37:08.869Z,99767.06
2019-05-10T03:39:36.038Z,99767.74
2019-05-10T03:42:02.841Z,99766.48
2019-05-10T03:44:29.585Z,99774.57
2019-05-10T03:46:57.032Z,99778.98
2019-05-10T03:49:23.803Z,99779.43
2019-05-10T03:51:50.645Z,99786.75
2019-05-10T03:54:17.385Z,99794.91
2019-05-10T03:56:44.410Z,99796.61
2019-05-10T03:59:11.307Z,99795.41
2019-05-10T04:01:38.052Z,99797.34
2019-05-10T04:04:09.354Z,99797.22
2019-05-10T04:06:33.613Z,99801.41
2019-05-10T04:09:00.450Z,99808.33
2019-05-10T04:11:27.246Z,99806.14
2019-05-10T04:13:54.540Z,99807.19
2019-05-10T04:16:21.325Z,99808.70
2019-05-10T04:18:48.158Z,99812.11
2019-05-10T04:21:15.109Z,99818.53
2019-05-10T04:23:43.224Z,99821.94
2019-05-10T04:26:10.270Z,99822.53
2019-05-10T04:28:37.170Z,99824.44
2019-05-10T04:31:03.919Z,99820.02
2019-05-10T04:33:30.852Z,99827.02
2019-05-10T04:35:57.586Z,99829.77
2019-05-10T04:38:24.339Z,99829.38
2019-05-10T04:40:51.109Z,99833.67
2019-05-10T04:43:17.807Z,99835.91
2019-05-10T04:45:44.927Z,99836.64
2019-05-10T04:48:11.815Z,99837.08
2019-05-10T04:50:38.627Z,99839.84
2019-05-10T04:53:05.527Z,99839.52
2019-05-10T04:55:33.990Z,99840.51
2019-05-10T04:58:00.893Z,99846.71
2019-05-10T05:00:27.901Z,99845.36
2019-05-10T05:02:54.659Z,99851.96
2019-05-10T05:05:21.727Z,99856.87
2019-05-10T05:07:48.791Z,99866.35
2019-05-10T05:10:15.545Z,99860.48
2019-05-10T05:12:42.337Z,99860.97
2019-05-10T05:15:09.090Z,99862.38
2019-05-10T05:17:35.852Z,99871.99
2019-05-10T05:20:03.703Z,99869.91
2019-05-10T05:22:30.448Z,99877.06
2019-05-10T05:25:01.326Z,99873.13
2019-05-10T05:27:25.920Z,99880.15
2019-05-10T05:29:52.685Z,99878.92
2019-05-10T05:32:19.600Z,99886.33
2019-05-10T05:34:46.774Z,99892.63
2019-05-10T05:37:13.836Z,99886.36
2019-05-10T05:39:40.926Z,99891.66
2019-05-10T05:42:08.132Z,99891.80
2019-05-10T05:44:34.790Z,99893.64
2019-05-10T05:47:04.568Z,99892.41
2019-05-10T05:49:30.371Z,99897.47
2019-05-10T05:51:57.544Z,99894.04
2019-05-10T05:54:24.645Z,99893.25
2019-05-10T05:56:53.135Z,99890.95
2019-05-10T05:59:23.809Z,99899.36
2019-05-10T06:01:48.849Z,99898.42
2019-05-10T06:04:15.952Z,99902.22
2019-05-10T06:06:43.107Z,99902.27
2019-05-10T06:09:10.009Z,99906.27
2019-05-10T06:11:37.855Z,99907.95
2019-05-10T06:14:10.889Z,99914.38
2019-05-10T06:16:36.722Z,99914.61
2019-05-10T06:19:03.572Z,99919.99
2019-05-10T06:21:30.556Z,99916.17
2019-05-10T06:23:59.410Z,99921.08
2019-05-10T06:26:28.559Z,99923.73
2019-05-10T06:28:59.516Z,99921.55
2019-05-10T06:31:23.532Z,99925.59
2019-05-10T06:33:50.424Z,99925.52
2019-05-10T06:36:17.333Z,99926.89
2019-05-10T06:38:44.080Z,99934.60
2019-05-10T06:41:16.936Z,99938.50
2019-05-10T06:43:39.431Z,99934.22
2019-05-10T06:46:06.329Z,99939.41
2019-05-10T06:48:33.838Z,99933.75
2019-05-10T06:51:02.869Z,99943.58
2019-05-10T06:53:29.925Z,99943.33
2019-05-10T06:55:56.960Z,99944.46
2019-05-10T06:58:23.726Z,99940.84
2019-05-10T07:00:50.805Z,99944.76
2019-05-10T07:03:17.577Z,99951.12
2019-05-10T07:05:44.386Z,99957.96
2019-05-10T07:08:19.502Z,99952.23
2019-05-10T07:10:39.988Z,99956.30
2019-05-10T07:13:07.001Z,99957.45
2019-05-10T07:15:35.680Z,99957.61
2019-05-10T07:18:02.462Z,99966.08
2019-05-10T07:20:30.869Z,99969.39
2019-05-10T07:23:00.181Z,99964.02
2019-05-10T07:25:26.543Z,99967.30
2019-05-10T07:27:53.333Z,99968.47
2019-05-10T07:30:30.274Z,99966.53
2019-05-10T07:32:59.702Z,99969.80
2019-05-10T07:35:30.901Z,99967.20
2019-05-10T07:37:54.809Z,99968.22
2019-05-10T07:40:21.675Z,99972.17
2019-05-10T07:42:48.452Z,99975.70
2019-05-10T07:45:18.968Z,99978.78
2019-05-10T07:47:44.174Z,99985.09
2019-05-10T07:50:11.588Z,99987.30
2019-05-10T07:52:43.324Z,99986.68
2019-05-10T07:55:10.264Z,99992.08
2019-05-10T07:57:36.724Z,99993.49
2019-05-10T08:00:05.997Z,99997.17
2019-05-10T08:02:32.359Z,100000.77
2019-05-10T08:05:04.532Z,100006.56
2019-05-10T08:07:29.428Z,100012.09
2019-05-10T08:09:56.619Z,100013.89
2019-05-10T08:12:23.759Z,100025.25
2019-05-10T08:14:53.487Z,100020.61
2019-05-10T08:17:19.334Z,100023.06
2019-05-10T08:19:46.044Z,100015.69
2019-05-10T08:22:14.828Z,100019.94
2019-05-10T08:24:44.610Z,100024.43
2019-05-10T08:27:14.255Z,100028.80
2019-05-10T08:29:39.492Z,100034.67
2019-05-10T08:32:06.399Z,100028.33
2019-05-10T08:34:35.538Z,100037.97
2019-05-10T08:37:02.557Z,100035.48
2019-05-10T08:39:35.246Z,100038.95
2019-05-10T08:42:04.833Z,100039.60
2019-05-10T08:44:27.338Z,100036.02
2019-05-10T08:46:54.118Z,100032.59
2019-05-10T08:49:25.645Z,100036.18
2019-05-10T08:51:52.181Z,100042.47
2019-05-10T08:54:18.770Z,100041.11
2019-05-10T08:56:46.682Z,100043.45
2019-05-10T08:59:16.364Z,100043.45
2019-05-10T09:01:46.491Z,100040.87
2019-05-10T09:04:13.761Z,100045.41
2019-05-10T09:06:42.049Z,100048.51
2019-05-10T09:09:09.071Z,100055.62
2019-05-10T09:11:35.837Z,100057.84
2019-05-10T09:14:03.302Z,100058.93
2019-05-10T09:16:39.355Z,100061.75
2019-05-10T09:18:59.151Z,100059.93
2019-05-10T09:21:25.927Z,100065.86
2019-05-10T09:24:01.230Z,100070.69
2019-05-10T09:26:22.729Z,100081.81
2019-05-10T09:28:55.510Z,100084.84
2019-05-10T09:31:22.684Z,100092.81
2019-05-10T09:33:49.545Z,100084.56
2019-05-10T09:36:16.073Z,100081.72
2019-05-10T09:38:44.092Z,100092.17
2019-05-10T09:41:11.914Z,100093.31
2019-05-10T09:43:42.441Z,100092.17
2019-05-10T09:46:07.629Z,100098.93
2019-05-10T09:48:34.385Z,100092.79
2019-05-10T09:51:04.058Z,100089.84
2019-05-10T09:53:30.695Z,100097.63
2019-05-10T09:56:04.563Z,100097.61
2019-05-10T09:58:31.597Z,100096.42
2019-05-10T10:01:13.464Z,100099.55
2019-05-10T10:03:29.635Z,100106.23
2019-05-10T10:06:05.676Z,100105.05
2019-05-10T10:08:28.451Z,100104.22
2019-05-10T10:11:01.172Z,100100.47
2019-05-10T10:13:36.853Z,100100.25
2019-05-10T10:15:52.954Z,100102.38
2019-05-10T10:18:25.073Z,100112.31
2019-05-10T10:20:49.415Z,100114.22
2019-05-10T10:23:17.308Z,100119.61
2019-05-10T10:25:44.266Z,100118.52
2019-05-10T10:28:17.251Z,100125.85
2019-05-10T10:30:40.630Z,100120.27
2019-05-10T10:33:11.469Z,100120.50
2019-05-10T10:35:37.811Z,100133.92
2019-05-10T10:38:05.628Z,100130.01
2019-05-10T10:40:35.378Z,100133.88
2019-05-10T10:43:03.050Z,100132.83
2019-05-10T10:45:29.863Z,100138.93
2019-05-10T10:47:57.441Z,100140.89
2019-05-10T10:50:24.390Z,100145.70
2019-05-10T10:52:51.345Z,100140.27
2019-05-10T10:55:19.298Z,100149.79
2019-05-10T10:57:48.103Z,100150.57
2019-05-10T11:00:23.230Z,100156.13
2019-05-10T11:02:51.908Z,100152.61
2019-05-10T11:05:17.448Z,100157.80
2019-05-10T11:07:47.819Z,100160.08
2019-05-10T11:10:21.600Z,100157.90
2019-05-10T11:12:48.013Z,100159.44
2019-05-10T11:15:16.466Z,100167.52
2019-05-10T11:17:45.282Z,100160.63
2019-05-10T11:20:12.295Z,100167.55
2019-05-10T11:22:42.053Z,100166.59
2019-05-10T11:25:10.383Z,100169.47
2019-05-10T11:27:37.133Z,100181.41
2019-05-10T11:30:04.820Z,100174.70
2019-05-10T11:32:31.747Z,100172.93
2019-05-10T11:34:59.519Z,100177.63
2019-05-10T11:37:32.823Z,100183.17
2019-05-10T11:39:56.370Z,100183.05
2019-05-10T11:42:23.684Z,100187.45
2019-05-10T11:44:54.580Z,100183.85
2019-05-10T11:47:26.534Z,100177.80
2019-05-10T11:49:50.850Z,100177.61
2019-05-10T11:52:17.426Z,100182.71
2019-05-10T11:54:44.218Z,100177.80
2019-05-10T11:57:13.786Z,100178.12
2019-05-10T11:59:41.555Z,100185.38
2019-05-10T12:02:10.448Z,100185.97
2019-05-10T12:04:39.509Z,100179.50
2019-05-10T12:07:08.861Z,100181.02
2019-05-10T12:09:34.695Z,100182.75
2019-05-10T12:12:03.451Z,100193.53
2019-05-10T12:14:30.519Z,100194.83
2019-05-10T12:16:57.326Z,100194.06
2019-05-10T12:19:24.169Z,100199.28
2019-05-10T12:21:55.585Z,100215.49
2019-05-10T12:26:59.026Z,100224.94
2019-05-10T12:27:13.024Z,100236.27
2019-05-10T12:29:17.406Z,100241.00
2019-05-10T12:31:47.580Z,100237.52
2019-05-10T12:34:14.600Z,100242.35
2019-05-10T12:36:43.523Z,100233.30
2019-05-10T12:39:11.604Z,100244.39
2019-05-10T12:41:39.972Z,100242.42
2019-05-10T12:44:07.634Z,100248.84
2019-05-10T12:46:34.505Z,100250.07
2019-05-10T12:49:02.116Z,100248.48
2019-05-10T12:51:31.300Z,100243.72
2019-05-10T12:53:58.262Z,100249.92
2019-05-10T12:56:25.014Z,100255.25
2019-05-10T12:58:57.512Z,100258.30
2019-05-10T13:01:25.778Z,100259.62
2019-05-10T13:03:49.170Z,100260.31
2019-05-10T13:06:19.494Z,100262.97
2019-05-10T13:08:44.968Z,100269.72
2019-05-10T13:11:11.713Z,100271.90
2019-05-10T13:13:39.155Z,100275.92
2019-05-10T13:16:09.546Z,100270.80
2019-05-10T13:18:52.829Z,100279.62
2019-05-10T13:21:07.882Z,100271.15
2019-05-10T13:23:35.137Z,100278.04
2019-05-10T13:26:01.900Z,100278.85
2019-05-10T13:28:28.817Z,100279.53
2019-05-10T13:30:59.882Z,100283.70
2019-05-10T13:33:28.948Z,100273.66
2019-05-10T13:35:56.383Z,100275.34
2019-05-10T13:38:21.905Z,100279.21
2019-05-10T13:40:48.955Z,100276.48
2019-05-10T13:43:17.365Z,100278.84
2019-05-10T13:45:44.958Z,100279.39
2019-05-10T13:48:11.764Z,100281.46
2019-05-10T13:50:38.734Z,100283.95
2019-05-10T13:53:05.593Z,100276.73
2019-05-10T13:55:32.360Z,100282.42
2019-05-10T13:57:59.271Z,100277.29
2019-05-10T14:00:33.010Z,100285.22
2019-05-10T14:02:56.459Z,100283.70
2019-05-10T14:05:23.501Z,100283.63
2019-05-10T14:07:52.767Z,100283.58
2019-05-10T14:10:23.420Z,100283.50
2019-05-10T14:12:47.938Z,100281.89
2019-05-10T14:15:15.116Z,100288.99
2019-05-10T14:17:42.005Z,100284.05
2019-05-10T14:20:19.555Z,100282.37
2019-05-10T14:22:37.677Z,100283.95
2019-05-10T14:25:04.753Z,100282.17
2019-05-10T14:27:36.144Z,100285.00
2019-05-10T14:30:00.635Z,100290.10
2019-05-10T14:32:27.478Z,100294.80
2019-05-10T14:34:54.225Z,100295.94
2019-05-10T14:37:21.652Z,100296.77
2019-05-10T14:39:48.705Z,100295.10
2019-05-10T14:42:15.592Z,100292.17
2019-05-10T14:44:42.730Z,100300.17
2019-05-10T14:47:11.139Z,100294.17
2019-05-10T14:49:42.209Z,100286.21
2019-05-10T14:52:08.042Z,100288.01
2019-05-10T14:54:43.120Z,100288.99
2019-05-10T14:57:03.740Z,100291.27
2019-05-10T14:59:30.498Z,100285.38
2019-05-10T15:01:57.250Z,100286.89
2019-05-10T15:06:53.199Z,100303.24
2019-05-10T15:09:23.975Z,100302.41
2019-05-10T15:11:48.776Z,100305.54
2019-05-10T15:14:15.556Z,100300.59
2019-05-10T15:16:42.456Z,100305.16
2019-05-10T15:19:09.464Z,100314.28
2019-05-10T15:21:36.266Z,100318.39
2019-05-10T15:24:03.206Z,100320.36
2019-05-10T15:26:30.048Z,100323.61
2019-05-10T15:28:56.947Z,100324.65
2019-05-10T15:31:29.179Z,100324.34
2019-05-10T15:33:52.871Z,100325.75
2019-05-10T15:36:23.683Z,100332.06
2019-05-10T15:38:51.908Z,100341.03
2019-05-10T15:41:22.417Z,100339.37
2019-05-10T15:43:49.020Z,100343.12
2019-05-10T15:46:15.933Z,100348.63
2019-05-10T15:48:43.387Z,100352.41
2019-05-10T15:51:11.114Z,100345.28
2019-05-10T15:53:41.661Z,100350.47
2019-05-10T15:56:08.603Z,100349.01
2019-05-10T15:58:36.693Z,100365.72
2019-05-10T16:01:06.340Z,100368.30
2019-05-10T16:03:33.220Z,100369.77
2019-05-10T16:06:01.159Z,100376.19
2019-05-10T16:08:30.298Z,100382.88
2019-05-10T16:10:57.217Z,100381.11
2019-05-10T16:13:25.182Z,100389.61
2019-05-10T16:15:57.733Z,100387.78
2019-05-10T16:18:20.886Z,100392.36
2019-05-10T16:20:47.634Z,100394.62
2019-05-10T16:23:14.547Z,100404.90
2019-05-10T16:25:47.546Z,100413.45
2019-05-10T16:28:10.151Z,100414.28
2019-05-10T16:30:36.952Z,100412.10
2019-05-10T16:33:03.891Z,100424.92
2019-05-10T16:35:38.465Z,100423.93
2019-05-10T16:38:00.764Z,100426.86
2019-05-10T16:40:28.555Z,100429.52
2019-05-10T16:42:55.346Z,100428.98
2019-05-10T16:45:22.653Z,100429.00
2019-05-10T16:47:50.318Z,100431.32
2019-05-10T16:50:26.031Z,100432.72
2019-05-10T16:52:59.352Z,100439.93
2019-05-10T16:55:24.568Z,100448.06
2019-05-10T16:57:54.801Z,100447.81
2019-05-10T17:00:21.927Z,100448.42
2019-05-10T17:02:49.175Z,100445.67
2019-05-10T17:05:17.413Z,100445.06
2019-05-10T17:07:44.985Z,100450.96
2019-05-10T17:10:11.836Z,100446.53
2019-05-10T17:12:38.863Z,100445.78
2019-05-10T17:15:07.696Z,100455.72
2019-05-10T17:17:37.028Z,100454.92
2019-05-10T17:20:07.387Z,100461.48
2019-05-10T17:22:33.359Z,100469.50
2019-05-10T17:25:03.502Z,100480.73
2019-05-10T17:27:28.994Z,100475.89
2019-05-10T17:29:56.449Z,100481.67
2019-05-10T17:32:24.832Z,100485.25
2019-05-10T17:34:52.856Z,100486.64
2019-05-10T17:37:21.321Z,100490.38
2019-05-10T17:39:48.248Z,100497.80
2019-05-10T17:42:15.268Z,100499.80
2019-05-10T17:44:43.916Z,100496.16
2019-05-10T17:47:11.246Z,100501.46
2019-05-10T17:49:39.719Z,100511.19
2019-05-10T17:52:06.690Z,100512.12
2019-05-10T17:54:38.842Z,100511.53
2019-05-10T17:57:02.410Z,100519.82
2019-05-10T17:59:29.073Z,100517.69
2019-05-10T18:01:56.326Z,100514.91
2019-05-10T18:04:23.367Z,100520.20
2019-05-10T18:06:50.095Z,100522.34
2019-05-10T18:09:16.981Z,100524.98
2019-05-10T18:11:45.027Z,100519.63
2019-05-10T18:14:12.572Z,100528.98
2019-05-10T18:16:41.972Z,100537.98
2019-05-10T18:19:09.830Z,100539.94
2019-05-10T18:21:36.583Z,100543.77
2019-05-10T18:24:03.754Z,100548.65
2019-05-10T18:26:34.233Z,100549.16
2019-05-10T18:28:59.148Z,100549.37
2019-05-10T18:31:25.790Z,100557.31
2019-05-10T18:33:54.597Z,100566.47
2019-05-10T18:36:26.818Z,100565.28
2019-05-10T18:38:50.820Z,100571.11
2019-05-10T18:41:17.900Z,100578.61
2019-05-10T18:43:44.999Z,100580.51
2019-05-10T18:46:12.033Z,100582.08
2019-05-10T18:48:39.014Z,100578.90
2019-05-10T18:51:06.466Z,100583.05
2019-05-10T18:53:33.239Z,100597.94
2019-05-10T18:56:00.733Z,100598.44
2019-05-10T18:58:29.521Z,100595.94
2019-05-10T19:01:00.578Z,100596.61
2019-05-10T19:03:27.983Z,100589.55
2019-05-10T19:05:54.381Z,100591.06
2019-05-10T19:08:21.118Z,100597.93
2019-05-10T19:10:48.444Z,100594.88
2019-05-10T19:13:16.231Z,100606.13
2019-05-10T19:15:46.063Z,100606.85
2019-05-10T19:18:11.910Z,100615.68
2019-05-10T19:20:39.482Z,100622.64
2019-05-10T19:23:06.270Z,100624.83
2019-05-10T19:25:33.136Z,100623.50
2019-05-10T19:28:00.000Z,100622.73
2019-05-10T19:30:26.841Z,100624.33
2019-05-10T19:32:56.357Z,100627.78
2019-05-10T19:35:22.664Z,100636.00
2019-05-10T19:37:49.407Z,100637.09
2019-05-10T19:40:16.193Z,100636.92
2019-05-10T19:42:44.864Z,100644.05
2019-05-10T19:45:12.894Z,100640.14
2019-05-10T19:47:40.721Z,100642.70
2019-05-10T19:50:07.706Z,100648.84
2019-05-10T19:52:34.616Z,100644.05
2019-05-10T19:55:01.457Z,100654.25
2019-05-10T19:57:30.009Z,100651.43
2019-05-10T19:59:56.850Z,100650.20
2019-05-10T20:02:26.810Z,100654.87
2019-05-10T20:04:53.599Z,100662.98
2019-05-10T20:07:21.422Z,100663.44
2019-05-10T20:09:48.163Z,100661.25
2019-05-10T20:12:15.017Z,100652.14
2019-05-10T20:14:41.828Z,100655.82
2019-05-10T20:17:08.588Z,100652.53
2019-05-10T20:19:35.382Z,100654.46
2019-05-10T20:22:02.285Z,100657.39
2019-05-10T20:24:29.089Z,100654.55
2019-05-10T20:26:55.910Z,100658.01
2019-05-10T20:29:23.309Z,100668.15
2019-05-10T20:31:50.371Z,100666.95
2019-05-10T20:34:17.039Z,100676.64
2019-05-10T20:36:44.047Z,100668.61
2019-05-10T20:39:10.887Z,100675.36
2019-05-10T20:41:37.648Z,100679.28
2019-05-10T20:44:06.182Z,100679.03
2019-05-10T20:46:32.959Z,100682.53
2019-05-10T20:48:59.835Z,100673.30
2019-05-10T20:51:26.671Z,100675.94
2019-05-10T20:53:54.168Z,100676.13
2019-05-10T20:56:20.942Z,100669.21
2019-05-10T20:58:47.845Z,100668.89
2019-05-10T21:01:14.945Z,100672.17
2019-05-10T21:03:41.825Z,100675.26
2019-05-10T21:06:08.653Z,100677.59
2019-05-10T21:08:36.061Z,100675.13
2019-05-10T21:11:02.945Z,100675.35
2019-05-10T21:13:29.746Z,100678.48
2019-05-10T21:15:56.646Z,100673.70
2019-05-10T21:18:23.558Z,100677.31
2019-05-10T21:20:50.605Z,100667.87
2019-05-10T21:23:17.776Z,100678.00
2019-05-10T21:25:44.762Z,100677.58
2019-05-10T21:28:11.670Z,100678.14
2019-05-10T21:30:38.456Z,100674.53
2019-05-10T21:33:05.367Z,100679.05
2019-05-10T21:35:32.139Z,100680.41
2019-05-10T21:37:59.072Z,100682.17
2019-05-10T21:40:26.338Z,100682.14
2019-05-10T21:42:53.502Z,100685.59
2019-05-10T21:45:21.222Z,100684.54
2019-05-10T21:47:51.627Z,100686.05
2019-05-10T21:50:16.682Z,100688.77
2019-05-10T21:52:43.397Z,100685.48
2019-05-10T21:55:10.252Z,100679.98
2019-05-10T21:57:37.615Z,100682.23
2019-05-10T22:00:05.249Z,100682.80
2019-05-10T22:02:32.410Z,100685.64
2019-05-10T22:04:59.694Z,100687.06
2019-05-10T22:07:27.024Z,100688.41
2019-05-10T22:09:53.798Z,100691.19
2019-05-10T22:12:20.746Z,100693.82
2019-05-10T22:14:47.639Z,100698.11
2019-05-10T22:17:14.556Z,100700.08
2019-05-10T22:19:41.417Z,100702.56
2019-05-10T22:22:08.289Z,100697.08
2019-05-10T22:24:35.215Z,100705.23
2019-05-10T22:27:01.979Z,100705.92
2019-05-10T22:29:28.848Z,100699.66
2019-05-10T22:31:55.754Z,100702.47
2019-05-10T22:34:22.772Z,100710.12
2019-05-10T22:36:49.589Z,100711.64
2019-05-10T22:39:16.458Z,100722.79
2019-05-10T22:41:43.387Z,100725.17
2019-05-10T22:44:10.454Z,100736.27
2019-05-10T22:46:37.303Z,100736.34
2019-05-10T22:49:04.218Z,100740.05
2019-05-10T22:51:31.419Z,100735.84
2019-05-10T22:53:59.841Z,100743.88
2019-05-10T22:56:27.008Z,100739.69
2019-05-10T22:58:54.038Z,100737.19
2019-05-10T23:01:20.970Z,100738.14
2019-05-10T23:03:48.085Z,100743.50
2019-05-10T23:06:14.753Z,100734.89
2019-05-10T23:08:41.805Z,100738.53
2019-05-10T23:11:08.553Z,100741.30
2019-05-10T23:13:35.721Z,100734.31
2019-05-10T23:16:02.479Z,100734.89
2019-05-10T23:18:29.377Z,100736.75
2019-05-10T23:20:56.259Z,100738.59
2019-05-10T23:23:23.420Z,100734.70
2019-05-10T23:25:50.302Z,100740.35
2019-05-10T23:28:17.383Z,100742.52
2019-05-10T23:30:44.128Z,100748.63
2019-05-10T23:33:11.312Z,100752.03
2019-05-10T23:35:38.069Z,100762.39
2019-05-10T23:38:05.100Z,100756.68
2019-05-10T23:40:32.359Z,100752.70
2019-05-10T23:42:59.129Z,100753.10
2019-05-10T23:45:26.031Z,100747.43
2019-05-10T23:47:53.018Z,100742.13
2019-05-10T23:50:20.077Z,100751.27
2019-05-10T23:52:46.970Z,100745.17
2019-05-10T23:55:13.855Z,100755.25
2019-05-10T23:57:40.906Z,100753.57
